sensor_id;sensor_type;location;lat;lon;timestamp;P1;durP1;ratioP1;P2;durP2;ratioP2
21089;SDS011;10703;51.020;6.128;2023-06-26T00:01:00;6.57;;;5.83;;
21089;SDS011;10703;51.020;6.128;2023-06-26T00:03:27;12.87;;;6.20;;
21089;SDS011;10703;51.020;6.128;2023-06-26T00:05:55;10.83;;;6.17;;
21089;SDS011;10703;51.020;6.128;2023-06-26T00:08:26;8.17;;;6.10;;
21089;SDS011;10703;51.020;6.128;2023-06-26T00:10:54;7.07;;;6.37;;
21089;SDS011;10703;51.020;6.128;2023-06-26T00:13:21;7.67;;;6.63;;
21089;SDS011;10703;51.020;6.128;2023-06-26T00:15:49;13.70;;;6.90;;
21089;SDS011;10703;51.020;6.128;2023-06-26T00:18:16;9.53;;;6.30;;
21089;SDS011;10703;51.020;6.128;2023-06-26T00:20:43;11.43;;;6.47;;
21089;SDS011;10703;51.020;6.128;2023-06-26T00:23:11;7.77;;;6.50;;
21089;SDS011;10703;51.020;6.128;2023-06-26T00:25:43;9.77;;;6.73;;
21089;SDS011;10703;51.020;6.128;2023-06-26T00:28:09;9.73;;;6.53;;
21089;SDS011;10703;51.020;6.128;2023-06-26T00:30:36;7.37;;;6.10;;
21089;SDS011;10703;51.020;6.128;2023-06-26T00:33:03;8.30;;;6.07;;
21089;SDS011;10703;51.020;6.128;2023-06-26T00:35:29;8.27;;;5.73;;
21089;SDS011;10703;51.020;6.128;2023-06-26T00:37:56;8.07;;;6.20;;
21089;SDS011;10703;51.020;6.128;2023-06-26T00:40:23;6.93;;;6.17;;
21089;SDS011;10703;51.020;6.128;2023-06-26T00:42:49;7.00;;;6.30;;
21089;SDS011;10703;51.020;6.128;2023-06-26T00:45:16;8.87;;;6.00;;
21089;SDS011;10703;51.020;6.128;2023-06-26T00:47:52;8.70;;;6.50;;
21089;SDS011;10703;51.020;6.128;2023-06-26T00:50:19;8.90;;;6.30;;
21089;SDS011;10703;51.020;6.128;2023-06-26T00:52:46;8.17;;;6.57;;
21089;SDS011;10703;51.020;6.128;2023-06-26T00:55:13;7.43;;;5.83;;
21089;SDS011;10703;51.020;6.128;2023-06-26T00:57:40;8.87;;;6.43;;
21089;SDS011;10703;51.020;6.128;2023-06-26T01:00:07;11.73;;;6.83;;
21089;SDS011;10703;51.020;6.128;2023-06-26T01:02:36;7.03;;;6.10;;
21089;SDS011;10703;51.020;6.128;2023-06-26T01:05:05;7.77;;;6.13;;
21089;SDS011;10703;51.020;6.128;2023-06-26T01:07:33;10.57;;;5.83;;
21089;SDS011;10703;51.020;6.128;2023-06-26T01:10:05;8.07;;;5.97;;
21089;SDS011;10703;51.020;6.128;2023-06-26T01:12:33;7.10;;;6.23;;
21089;SDS011;10703;51.020;6.128;2023-06-26T01:14:59;6.43;;;5.83;;
21089;SDS011;10703;51.020;6.128;2023-06-26T01:17:27;9.70;;;5.80;;
21089;SDS011;10703;51.020;6.128;2023-06-26T01:19:59;6.83;;;6.13;;
21089;SDS011;10703;51.020;6.128;2023-06-26T01:22:48;9.37;;;6.50;;
21089;SDS011;10703;51.020;6.128;2023-06-26T01:25:53;9.53;;;6.93;;
21089;SDS011;10703;51.020;6.128;2023-06-26T01:28:41;10.23;;;6.60;;
21089;SDS011;10703;51.020;6.128;2023-06-26T01:31:08;7.57;;;5.90;;
21089;SDS011;10703;51.020;6.128;2023-06-26T01:33:36;7.73;;;6.23;;
21089;SDS011;10703;51.020;6.128;2023-06-26T01:36:04;6.90;;;6.20;;
21089;SDS011;10703;51.020;6.128;2023-06-26T01:38:30;7.20;;;6.50;;
21089;SDS011;10703;51.020;6.128;2023-06-26T01:40:57;8.40;;;6.43;;
21089;SDS011;10703;51.020;6.128;2023-06-26T01:44:12;10.67;;;6.40;;
21089;SDS011;10703;51.020;6.128;2023-06-26T01:46:58;8.77;;;6.50;;
21089;SDS011;10703;51.020;6.128;2023-06-26T01:49:31;8.03;;;6.47;;
21089;SDS011;10703;51.020;6.128;2023-06-26T01:52:41;8.57;;;6.30;;
21089;SDS011;10703;51.020;6.128;2023-06-26T01:55:18;9.27;;;6.30;;
21089;SDS011;10703;51.020;6.128;2023-06-26T01:57:52;7.77;;;6.30;;
21089;SDS011;10703;51.020;6.128;2023-06-26T02:00:22;7.47;;;6.70;;
21089;SDS011;10703;51.020;6.128;2023-06-26T02:02:50;6.53;;;5.83;;
21089;SDS011;10703;51.020;6.128;2023-06-26T02:05:18;11.53;;;6.70;;
21089;SDS011;10703;51.020;6.128;2023-06-26T02:07:44;7.63;;;6.37;;
21089;SDS011;10703;51.020;6.128;2023-06-26T02:10:11;11.50;;;7.13;;
21089;SDS011;10703;51.020;6.128;2023-06-26T02:12:38;9.93;;;7.03;;
21089;SDS011;10703;51.020;6.128;2023-06-26T02:15:05;10.13;;;7.03;;
21089;SDS011;10703;51.020;6.128;2023-06-26T02:17:32;10.47;;;7.53;;
21089;SDS011;10703;51.020;6.128;2023-06-26T02:19:59;11.20;;;8.47;;
21089;SDS011;10703;51.020;6.128;2023-06-26T02:22:25;8.50;;;6.90;;
21089;SDS011;10703;51.020;6.128;2023-06-26T02:24:54;10.20;;;7.30;;
21089;SDS011;10703;51.020;6.128;2023-06-26T02:27:21;11.67;;;7.13;;
21089;SDS011;10703;51.020;6.128;2023-06-26T02:29:47;9.40;;;7.20;;
21089;SDS011;10703;51.020;6.128;2023-06-26T02:32:14;8.57;;;7.13;;
21089;SDS011;10703;51.020;6.128;2023-06-26T02:34:41;9.80;;;6.80;;
21089;SDS011;10703;51.020;6.128;2023-06-26T02:37:08;10.03;;;7.20;;
21089;SDS011;10703;51.020;6.128;2023-06-26T02:39:34;11.43;;;7.37;;
21089;SDS011;10703;51.020;6.128;2023-06-26T02:42:01;10.37;;;7.80;;
21089;SDS011;10703;51.020;6.128;2023-06-26T02:44:27;8.77;;;6.87;;
21089;SDS011;10703;51.020;6.128;2023-06-26T02:46:54;8.57;;;7.00;;
21089;SDS011;10703;51.020;6.128;2023-06-26T02:49:21;11.30;;;7.53;;
21089;SDS011;10703;51.020;6.128;2023-06-26T02:51:48;12.47;;;6.53;;
21089;SDS011;10703;51.020;6.128;2023-06-26T02:54:15;10.33;;;6.80;;
21089;SDS011;10703;51.020;6.128;2023-06-26T02:56:42;7.80;;;7.00;;
21089;SDS011;10703;51.020;6.128;2023-06-26T02:59:13;10.23;;;7.30;;
21089;SDS011;10703;51.020;6.128;2023-06-26T03:01:40;7.70;;;6.80;;
21089;SDS011;10703;51.020;6.128;2023-06-26T03:04:06;9.60;;;7.20;;
21089;SDS011;10703;51.020;6.128;2023-06-26T03:06:34;8.00;;;6.43;;
21089;SDS011;10703;51.020;6.128;2023-06-26T03:09:00;8.43;;;7.10;;
21089;SDS011;10703;51.020;6.128;2023-06-26T03:11:27;10.77;;;7.10;;
21089;SDS011;10703;51.020;6.128;2023-06-26T03:13:54;10.90;;;6.83;;
21089;SDS011;10703;51.020;6.128;2023-06-26T03:16:20;9.17;;;6.83;;
21089;SDS011;10703;51.020;6.128;2023-06-26T03:18:47;8.37;;;7.43;;
21089;SDS011;10703;51.020;6.128;2023-06-26T03:21:14;8.87;;;7.60;;
21089;SDS011;10703;51.020;6.128;2023-06-26T03:23:40;10.53;;;7.33;;
21089;SDS011;10703;51.020;6.128;2023-06-26T03:26:07;10.57;;;7.03;;
21089;SDS011;10703;51.020;6.128;2023-06-26T03:28:33;10.07;;;7.47;;
21089;SDS011;10703;51.020;6.128;2023-06-26T03:31:00;7.57;;;6.70;;
21089;SDS011;10703;51.020;6.128;2023-06-26T03:33:27;7.87;;;6.97;;
21089;SDS011;10703;51.020;6.128;2023-06-26T03:35:53;10.03;;;7.20;;
21089;SDS011;10703;51.020;6.128;2023-06-26T03:38:21;8.23;;;6.90;;
21089;SDS011;10703;51.020;6.128;2023-06-26T03:40:48;8.47;;;6.60;;
21089;SDS011;10703;51.020;6.128;2023-06-26T03:43:15;9.70;;;6.97;;
21089;SDS011;10703;51.020;6.128;2023-06-26T03:45:41;6.50;;;5.90;;
21089;SDS011;10703;51.020;6.128;2023-06-26T03:48:08;7.47;;;6.20;;
21089;SDS011;10703;51.020;6.128;2023-06-26T03:50:35;10.00;;;6.37;;
21089;SDS011;10703;51.020;6.128;2023-06-26T03:53:02;7.53;;;6.73;;
21089;SDS011;10703;51.020;6.128;2023-06-26T03:55:29;11.80;;;6.23;;
21089;SDS011;10703;51.020;6.128;2023-06-26T03:57:55;8.87;;;6.63;;
21089;SDS011;10703;51.020;6.128;2023-06-26T04:00:22;7.17;;;5.63;;
21089;SDS011;10703;51.020;6.128;2023-06-26T04:02:49;8.77;;;6.43;;
21089;SDS011;10703;51.020;6.128;2023-06-26T04:05:17;7.90;;;5.67;;
21089;SDS011;10703;51.020;6.128;2023-06-26T04:07:45;8.90;;;6.33;;
21089;SDS011;10703;51.020;6.128;2023-06-26T04:10:11;8.33;;;6.33;;
21089;SDS011;10703;51.020;6.128;2023-06-26T04:12:38;7.27;;;5.73;;
21089;SDS011;10703;51.020;6.128;2023-06-26T04:15:04;6.87;;;5.60;;
21089;SDS011;10703;51.020;6.128;2023-06-26T04:17:32;6.83;;;4.77;;
21089;SDS011;10703;51.020;6.128;2023-06-26T04:19:58;8.33;;;5.30;;
21089;SDS011;10703;51.020;6.128;2023-06-26T04:22:25;5.67;;;4.67;;
21089;SDS011;10703;51.020;6.128;2023-06-26T04:24:52;8.43;;;5.53;;
21089;SDS011;10703;51.020;6.128;2023-06-26T04:27:18;6.27;;;5.20;;
21089;SDS011;10703;51.020;6.128;2023-06-26T04:29:45;5.77;;;4.73;;
21089;SDS011;10703;51.020;6.128;2023-06-26T04:32:12;6.13;;;5.23;;
21089;SDS011;10703;51.020;6.128;2023-06-26T04:34:38;13.87;;;5.43;;
21089;SDS011;10703;51.020;6.128;2023-06-26T04:37:07;9.30;;;5.30;;
21089;SDS011;10703;51.020;6.128;2023-06-26T04:39:36;9.17;;;5.40;;
21089;SDS011;10703;51.020;6.128;2023-06-26T04:42:03;8.87;;;5.10;;
21089;SDS011;10703;51.020;6.128;2023-06-26T04:44:31;10.17;;;5.37;;
21089;SDS011;10703;51.020;6.128;2023-06-26T04:46:58;7.10;;;5.07;;
21089;SDS011;10703;51.020;6.128;2023-06-26T04:49:25;6.87;;;5.00;;
21089;SDS011;10703;51.020;6.128;2023-06-26T04:51:54;7.33;;;5.43;;
21089;SDS011;10703;51.020;6.128;2023-06-26T04:54:21;6.60;;;5.80;;
21089;SDS011;10703;51.020;6.128;2023-06-26T04:56:48;7.83;;;5.60;;
21089;SDS011;10703;51.020;6.128;2023-06-26T04:59:15;10.27;;;5.77;;
21089;SDS011;10703;51.020;6.128;2023-06-26T05:01:41;7.53;;;5.50;;
21089;SDS011;10703;51.020;6.128;2023-06-26T05:04:14;6.87;;;4.97;;
21089;SDS011;10703;51.020;6.128;2023-06-26T05:06:42;7.17;;;5.20;;
21089;SDS011;10703;51.020;6.128;2023-06-26T05:09:08;8.23;;;5.30;;
21089;SDS011;10703;51.020;6.128;2023-06-26T05:11:36;6.17;;;4.90;;
21089;SDS011;10703;51.020;6.128;2023-06-26T05:14:03;10.00;;;5.27;;
21089;SDS011;10703;51.020;6.128;2023-06-26T05:16:33;6.53;;;4.90;;
21089;SDS011;10703;51.020;6.128;2023-06-26T05:19:00;6.33;;;5.17;;
21089;SDS011;10703;51.020;6.128;2023-06-26T05:21:28;8.17;;;4.93;;
21089;SDS011;10703;51.020;6.128;2023-06-26T05:23:55;7.93;;;4.63;;
21089;SDS011;10703;51.020;6.128;2023-06-26T05:26:23;10.63;;;4.87;;
21089;SDS011;10703;51.020;6.128;2023-06-26T05:28:50;9.53;;;5.43;;
21089;SDS011;10703;51.020;6.128;2023-06-26T05:31:17;7.23;;;4.90;;
21089;SDS011;10703;51.020;6.128;2023-06-26T05:33:45;7.90;;;5.30;;
21089;SDS011;10703;51.020;6.128;2023-06-26T05:36:12;8.00;;;5.23;;
21089;SDS011;10703;51.020;6.128;2023-06-26T05:38:41;7.93;;;4.87;;
21089;SDS011;10703;51.020;6.128;2023-06-26T05:41:09;9.67;;;5.50;;
21089;SDS011;10703;51.020;6.128;2023-06-26T05:43:35;7.57;;;4.67;;
21089;SDS011;10703;51.020;6.128;2023-06-26T05:46:02;7.67;;;5.20;;
21089;SDS011;10703;51.020;6.128;2023-06-26T05:48:28;8.97;;;4.90;;
21089;SDS011;10703;51.020;6.128;2023-06-26T05:50:55;6.00;;;4.77;;
21089;SDS011;10703;51.020;6.128;2023-06-26T05:53:22;7.43;;;5.10;;
21089;SDS011;10703;51.020;6.128;2023-06-26T05:55:49;7.90;;;5.40;;
21089;SDS011;10703;51.020;6.128;2023-06-26T05:58:16;9.40;;;5.43;;
21089;SDS011;10703;51.020;6.128;2023-06-26T06:00:46;11.83;;;5.17;;
21089;SDS011;10703;51.020;6.128;2023-06-26T06:03:12;8.53;;;5.03;;
21089;SDS011;10703;51.020;6.128;2023-06-26T06:05:39;8.57;;;4.90;;
21089;SDS011;10703;51.020;6.128;2023-06-26T06:08:06;10.03;;;4.97;;
21089;SDS011;10703;51.020;6.128;2023-06-26T06:10:32;9.10;;;5.10;;
21089;SDS011;10703;51.020;6.128;2023-06-26T06:12:59;8.03;;;5.13;;
21089;SDS011;10703;51.020;6.128;2023-06-26T06:15:25;9.50;;;5.70;;
21089;SDS011;10703;51.020;6.128;2023-06-26T06:17:56;8.53;;;5.17;;
21089;SDS011;10703;51.020;6.128;2023-06-26T06:20:22;8.17;;;5.03;;
21089;SDS011;10703;51.020;6.128;2023-06-26T06:22:49;7.97;;;5.33;;
21089;SDS011;10703;51.020;6.128;2023-06-26T06:25:16;10.63;;;5.80;;
21089;SDS011;10703;51.020;6.128;2023-06-26T06:27:42;8.90;;;5.43;;
21089;SDS011;10703;51.020;6.128;2023-06-26T06:30:10;9.07;;;5.37;;
21089;SDS011;10703;51.020;6.128;2023-06-26T06:32:37;10.20;;;5.30;;
21089;SDS011;10703;51.020;6.128;2023-06-26T06:35:04;12.10;;;5.23;;
21089;SDS011;10703;51.020;6.128;2023-06-26T06:37:38;9.70;;;5.23;;
21089;SDS011;10703;51.020;6.128;2023-06-26T06:40:05;11.53;;;5.47;;
21089;SDS011;10703;51.020;6.128;2023-06-26T06:42:32;11.50;;;5.20;;
21089;SDS011;10703;51.020;6.128;2023-06-26T06:45:00;7.37;;;4.87;;
21089;SDS011;10703;51.020;6.128;2023-06-26T06:47:27;7.13;;;4.30;;
21089;SDS011;10703;51.020;6.128;2023-06-26T06:49:54;7.90;;;4.03;;
21089;SDS011;10703;51.020;6.128;2023-06-26T06:52:21;7.47;;;4.10;;
21089;SDS011;10703;51.020;6.128;2023-06-26T06:54:52;13.13;;;4.30;;
21089;SDS011;10703;51.020;6.128;2023-06-26T06:57:20;7.90;;;4.70;;
21089;SDS011;10703;51.020;6.128;2023-06-26T06:59:47;7.23;;;4.37;;
21089;SDS011;10703;51.020;6.128;2023-06-26T07:02:16;7.47;;;4.23;;
21089;SDS011;10703;51.020;6.128;2023-06-26T07:04:43;4.50;;;3.50;;
21089;SDS011;10703;51.020;6.128;2023-06-26T07:07:10;6.50;;;4.27;;
21089;SDS011;10703;51.020;6.128;2023-06-26T07:09:36;8.13;;;4.00;;
21089;SDS011;10703;51.020;6.128;2023-06-26T07:12:03;5.47;;;3.60;;
21089;SDS011;10703;51.020;6.128;2023-06-26T07:14:30;7.28;;;3.67;;
21089;SDS011;10703;51.020;6.128;2023-06-26T07:16:57;12.18;;;4.65;;
21089;SDS011;10703;51.020;6.128;2023-06-26T07:19:23;7.25;;;3.90;;
21089;SDS011;10703;51.020;6.128;2023-06-26T07:21:50;8.73;;;3.70;;
21089;SDS011;10703;51.020;6.128;2023-06-26T07:24:17;13.73;;;4.25;;
21089;SDS011;10703;51.020;6.128;2023-06-26T07:26:43;8.70;;;4.00;;
21089;SDS011;10703;51.020;6.128;2023-06-26T07:29:13;8.02;;;3.92;;
21089;SDS011;10703;51.020;6.128;2023-06-26T07:31:40;12.55;;;4.65;;
21089;SDS011;10703;51.020;6.128;2023-06-26T07:34:07;12.87;;;4.80;;
21089;SDS011;10703;51.020;6.128;2023-06-26T07:36:33;7.63;;;4.07;;
21089;SDS011;10703;51.020;6.128;2023-06-26T07:39:00;6.68;;;3.92;;
21089;SDS011;10703;51.020;6.128;2023-06-26T07:41:26;11.75;;;4.50;;
21089;SDS011;10703;51.020;6.128;2023-06-26T07:43:55;14.35;;;4.57;;
21089;SDS011;10703;51.020;6.128;2023-06-26T07:46:23;8.00;;;3.50;;
21089;SDS011;10703;51.020;6.128;2023-06-26T07:48:49;8.07;;;4.25;;
21089;SDS011;10703;51.020;6.128;2023-06-26T07:51:16;9.25;;;3.67;;
21089;SDS011;10703;51.020;6.128;2023-06-26T07:53:43;15.43;;;4.07;;
21089;SDS011;10703;51.020;6.128;2023-06-26T07:56:09;6.20;;;3.42;;
21089;SDS011;10703;51.020;6.128;2023-06-26T07:58:36;14.68;;;4.93;;
21089;SDS011;10703;51.020;6.128;2023-06-26T08:01:04;14.98;;;4.82;;
21089;SDS011;10703;51.020;6.128;2023-06-26T08:03:31;8.00;;;3.92;;
21089;SDS011;10703;51.020;6.128;2023-06-26T08:06:01;16.75;;;5.05;;
21089;SDS011;10703;51.020;6.128;2023-06-26T08:08:27;14.18;;;4.13;;
21089;SDS011;10703;51.020;6.128;2023-06-26T08:10:54;8.25;;;3.90;;
21089;SDS011;10703;51.020;6.128;2023-06-26T08:13:21;7.63;;;4.45;;
21089;SDS011;10703;51.020;6.128;2023-06-26T08:15:47;5.80;;;4.30;;
21089;SDS011;10703;51.020;6.128;2023-06-26T08:18:14;8.63;;;4.20;;
21089;SDS011;10703;51.020;6.128;2023-06-26T08:20:41;10.02;;;4.43;;
21089;SDS011;10703;51.020;6.128;2023-06-26T08:23:07;7.95;;;4.00;;
21089;SDS011;10703;51.020;6.128;2023-06-26T08:25:34;7.35;;;3.75;;
21089;SDS011;10703;51.020;6.128;2023-06-26T08:28:01;16.27;;;4.22;;
21089;SDS011;10703;51.020;6.128;2023-06-26T08:30:27;8.63;;;4.20;;
21089;SDS011;10703;51.020;6.128;2023-06-26T08:32:57;10.45;;;3.75;;
21089;SDS011;10703;51.020;6.128;2023-06-26T08:35:24;8.55;;;3.70;;
21089;SDS011;10703;51.020;6.128;2023-06-26T08:37:51;8.20;;;3.90;;
21089;SDS011;10703;51.020;6.128;2023-06-26T08:40:17;8.23;;;3.55;;
21089;SDS011;10703;51.020;6.128;2023-06-26T08:42:45;12.60;;;4.60;;
21089;SDS011;10703;51.020;6.128;2023-06-26T08:45:11;13.18;;;4.25;;
21089;SDS011;10703;51.020;6.128;2023-06-26T08:47:38;8.32;;;3.72;;
21089;SDS011;10703;51.020;6.128;2023-06-26T08:50:08;6.65;;;4.32;;
21089;SDS011;10703;51.020;6.128;2023-06-26T08:55:26;10.20;;;4.22;;
21089;SDS011;10703;51.020;6.128;2023-06-26T08:57:54;8.95;;;4.10;;
21089;SDS011;10703;51.020;6.128;2023-06-26T09:00:21;10.68;;;4.25;;
21089;SDS011;10703;51.020;6.128;2023-06-26T09:02:49;10.07;;;4.00;;
21089;SDS011;10703;51.020;6.128;2023-06-26T09:05:15;9.05;;;3.90;;
21089;SDS011;10703;51.020;6.128;2023-06-26T09:07:42;7.80;;;3.83;;
21089;SDS011;10703;51.020;6.128;2023-06-26T09:10:09;7.93;;;3.70;;
21089;SDS011;10703;51.020;6.128;2023-06-26T09:12:36;9.07;;;3.45;;
21089;SDS011;10703;51.020;6.128;2023-06-26T09:15:04;6.35;;;3.38;;
21089;SDS011;10703;51.020;6.128;2023-06-26T09:17:38;8.63;;;3.63;;
21089;SDS011;10703;51.020;6.128;2023-06-26T09:20:08;6.47;;;3.55;;
21089;SDS011;10703;51.020;6.128;2023-06-26T09:22:36;9.27;;;4.03;;
21089;SDS011;10703;51.020;6.128;2023-06-26T09:25:07;6.13;;;3.58;;
21089;SDS011;10703;51.020;6.128;2023-06-26T09:27:35;5.10;;;3.28;;
21089;SDS011;10703;51.020;6.128;2023-06-26T09:30:05;4.80;;;3.35;;
21089;SDS011;10703;51.020;6.128;2023-06-26T09:32:36;4.85;;;3.25;;
21089;SDS011;10703;51.020;6.128;2023-06-26T09:35:03;5.60;;;3.15;;
21089;SDS011;10703;51.020;6.128;2023-06-26T09:37:30;6.65;;;3.63;;
21089;SDS011;10703;51.020;6.128;2023-06-26T09:39:57;10.63;;;3.70;;
21089;SDS011;10703;51.020;6.128;2023-06-26T09:42:24;6.97;;;3.80;;
21089;SDS011;10703;51.020;6.128;2023-06-26T09:44:51;9.43;;;3.17;;
21089;SDS011;10703;51.020;6.128;2023-06-26T09:47:18;9.13;;;3.80;;
21089;SDS011;10703;51.020;6.128;2023-06-26T09:49:46;4.72;;;3.30;;
21089;SDS011;10703;51.020;6.128;2023-06-26T09:52:14;6.35;;;3.65;;
21089;SDS011;10703;51.020;6.128;2023-06-26T09:54:42;6.70;;;3.13;;
21089;SDS011;10703;51.020;6.128;2023-06-26T09:57:12;9.73;;;3.60;;
21089;SDS011;10703;51.020;6.128;2023-06-26T09:59:41;8.25;;;3.38;;
21089;SDS011;10703;51.020;6.128;2023-06-26T10:02:10;7.82;;;3.30;;
21089;SDS011;10703;51.020;6.128;2023-06-26T10:04:37;6.00;;;3.15;;
21089;SDS011;10703;51.020;6.128;2023-06-26T10:07:05;7.15;;;3.35;;
21089;SDS011;10703;51.020;6.128;2023-06-26T10:09:34;10.20;;;3.58;;
21089;SDS011;10703;51.020;6.128;2023-06-26T10:12:06;4.90;;;2.83;;
21089;SDS011;10703;51.020;6.128;2023-06-26T10:14:39;5.80;;;2.60;;
21089;SDS011;10703;51.020;6.128;2023-06-26T10:17:11;5.03;;;2.85;;
21089;SDS011;10703;51.020;6.128;2023-06-26T10:19:41;4.65;;;2.40;;
21089;SDS011;10703;51.020;6.128;2023-06-26T10:22:11;10.35;;;3.13;;
21089;SDS011;10703;51.020;6.128;2023-06-26T10:24:41;5.70;;;2.38;;
21089;SDS011;10703;51.020;6.128;2023-06-26T10:27:20;8.88;;;2.70;;
21089;SDS011;10703;51.020;6.128;2023-06-26T10:29:51;5.30;;;2.65;;
21089;SDS011;10703;51.020;6.128;2023-06-26T10:32:22;4.22;;;2.67;;
21089;SDS011;10703;51.020;6.128;2023-06-26T10:34:51;6.45;;;2.70;;
21089;SDS011;10703;51.020;6.128;2023-06-26T10:37:18;9.15;;;2.67;;
21089;SDS011;10703;51.020;6.128;2023-06-26T10:42:12;3.22;;;2.17;;
21089;SDS011;10703;51.020;6.128;2023-06-26T10:44:43;3.75;;;2.10;;
21089;SDS011;10703;51.020;6.128;2023-06-26T10:47:11;7.72;;;2.50;;
21089;SDS011;10703;51.020;6.128;2023-06-26T10:49:54;5.82;;;2.42;;
21089;SDS011;10703;51.020;6.128;2023-06-26T10:52:38;6.95;;;2.28;;
21089;SDS011;10703;51.020;6.128;2023-06-26T10:55:07;4.72;;;2.65;;
21089;SDS011;10703;51.020;6.128;2023-06-26T10:57:35;9.60;;;2.33;;
21089;SDS011;10703;51.020;6.128;2023-06-26T11:00:09;6.18;;;2.40;;
21089;SDS011;10703;51.020;6.128;2023-06-26T11:02:49;26.90;;;3.22;;
21089;SDS011;10703;51.020;6.128;2023-06-26T11:05:26;6.20;;;2.33;;
21089;SDS011;10703;51.020;6.128;2023-06-26T11:08:09;7.55;;;2.83;;
21089;SDS011;10703;51.020;6.128;2023-06-26T11:10:53;5.85;;;2.40;;
21089;SDS011;10703;51.020;6.128;2023-06-26T11:13:25;4.78;;;1.95;;
21089;SDS011;10703;51.020;6.128;2023-06-26T11:15:52;6.22;;;2.25;;
21089;SDS011;10703;51.020;6.128;2023-06-26T11:18:23;9.73;;;2.20;;
21089;SDS011;10703;51.020;6.128;2023-06-26T11:20:50;3.40;;;2.20;;
21089;SDS011;10703;51.020;6.128;2023-06-26T11:23:19;3.08;;;2.15;;
21089;SDS011;10703;51.020;6.128;2023-06-26T11:25:50;6.38;;;2.10;;
21089;SDS011;10703;51.020;6.128;2023-06-26T11:28:16;5.75;;;2.08;;
21089;SDS011;10703;51.020;6.128;2023-06-26T11:30:43;6.03;;;2.00;;
21089;SDS011;10703;51.020;6.128;2023-06-26T11:33:10;5.57;;;2.10;;
21089;SDS011;10703;51.020;6.128;2023-06-26T11:35:37;4.72;;;1.80;;
21089;SDS011;10703;51.020;6.128;2023-06-26T11:38:04;7.38;;;1.90;;
21089;SDS011;10703;51.020;6.128;2023-06-26T11:40:32;8.43;;;2.05;;
21089;SDS011;10703;51.020;6.128;2023-06-26T11:43:03;7.70;;;2.10;;
21089;SDS011;10703;51.020;6.128;2023-06-26T11:45:32;5.25;;;2.15;;
21089;SDS011;10703;51.020;6.128;2023-06-26T11:48:00;3.35;;;2.00;;
21089;SDS011;10703;51.020;6.128;2023-06-26T11:50:27;2.63;;;1.75;;
21089;SDS011;10703;51.020;6.128;2023-06-26T11:52:57;2.67;;;1.55;;
21089;SDS011;10703;51.020;6.128;2023-06-26T11:55:25;9.57;;;2.75;;
21089;SDS011;10703;51.020;6.128;2023-06-26T11:57:52;4.93;;;1.77;;
21089;SDS011;10703;51.020;6.128;2023-06-26T12:00:20;2.75;;;1.58;;
21089;SDS011;10703;51.020;6.128;2023-06-26T12:02:47;1.92;;;1.50;;
21089;SDS011;10703;51.020;6.128;2023-06-26T12:05:16;3.03;;;1.80;;
21089;SDS011;10703;51.020;6.128;2023-06-26T12:07:46;5.05;;;1.75;;
21089;SDS011;10703;51.020;6.128;2023-06-26T12:10:14;6.93;;;1.70;;
21089;SDS011;10703;51.020;6.128;2023-06-26T12:12:41;6.32;;;1.75;;
21089;SDS011;10703;51.020;6.128;2023-06-26T12:15:10;11.40;;;1.77;;
21089;SDS011;10703;51.020;6.128;2023-06-26T12:17:38;2.72;;;1.75;;
21089;SDS011;10703;51.020;6.128;2023-06-26T12:20:16;3.90;;;1.83;;
21089;SDS011;10703;51.020;6.128;2023-06-26T12:22:48;2.90;;;1.70;;
21089;SDS011;10703;51.020;6.128;2023-06-26T12:25:15;1.92;;;1.52;;
21089;SDS011;10703;51.020;6.128;2023-06-26T12:27:48;4.65;;;1.90;;
21089;SDS011;10703;51.020;6.128;2023-06-26T12:30:16;3.30;;;1.80;;
21089;SDS011;10703;51.020;6.128;2023-06-26T12:32:45;3.47;;;1.95;;
21089;SDS011;10703;51.020;6.128;2023-06-26T12:35:15;3.83;;;1.48;;
21089;SDS011;10703;51.020;6.128;2023-06-26T12:37:42;2.00;;;1.60;;
21089;SDS011;10703;51.020;6.128;2023-06-26T12:40:18;6.80;;;2.20;;
21089;SDS011;10703;51.020;6.128;2023-06-26T12:42:48;4.88;;;1.90;;
21089;SDS011;10703;51.020;6.128;2023-06-26T12:45:15;3.08;;;1.88;;
21089;SDS011;10703;51.020;6.128;2023-06-26T12:48:07;2.75;;;1.50;;
21089;SDS011;10703;51.020;6.128;2023-06-26T12:50:37;3.15;;;1.75;;
21089;SDS011;10703;51.020;6.128;2023-06-26T12:53:09;6.03;;;1.85;;
21089;SDS011;10703;51.020;6.128;2023-06-26T12:55:36;3.72;;;1.70;;
21089;SDS011;10703;51.020;6.128;2023-06-26T12:58:03;4.47;;;1.90;;
21089;SDS011;10703;51.020;6.128;2023-06-26T13:00:29;13.02;;;2.50;;
21089;SDS011;10703;51.020;6.128;2023-06-26T13:02:58;3.70;;;2.00;;
21089;SDS011;10703;51.020;6.128;2023-06-26T13:05:25;2.78;;;1.80;;
21089;SDS011;10703;51.020;6.128;2023-06-26T13:07:51;4.93;;;2.15;;
21089;SDS011;10703;51.020;6.128;2023-06-26T13:10:19;10.63;;;2.33;;
21089;SDS011;10703;51.020;6.128;2023-06-26T13:12:47;8.02;;;3.15;;
21089;SDS011;10703;51.020;6.128;2023-06-26T13:15:14;4.78;;;1.88;;
21089;SDS011;10703;51.020;6.128;2023-06-26T13:17:40;4.05;;;2.15;;
21089;SDS011;10703;51.020;6.128;2023-06-26T13:20:07;5.60;;;2.20;;
21089;SDS011;10703;51.020;6.128;2023-06-26T13:22:34;4.75;;;1.55;;
21089;SDS011;10703;51.020;6.128;2023-06-26T13:25:01;4.20;;;1.90;;
21089;SDS011;10703;51.020;6.128;2023-06-26T13:27:28;4.65;;;2.00;;
21089;SDS011;10703;51.020;6.128;2023-06-26T13:29:54;7.53;;;2.10;;
21089;SDS011;10703;51.020;6.128;2023-06-26T13:32:21;2.85;;;1.80;;
21089;SDS011;10703;51.020;6.128;2023-06-26T13:34:48;2.88;;;1.85;;
21089;SDS011;10703;51.020;6.128;2023-06-26T13:37:14;8.48;;;2.22;;
21089;SDS011;10703;51.020;6.128;2023-06-26T13:39:41;4.18;;;1.77;;
21089;SDS011;10703;51.020;6.128;2023-06-26T13:42:09;5.35;;;1.75;;
21089;SDS011;10703;51.020;6.128;2023-06-26T13:44:36;10.07;;;2.03;;
21089;SDS011;10703;51.020;6.128;2023-06-26T13:47:17;5.57;;;1.90;;
21089;SDS011;10703;51.020;6.128;2023-06-26T13:49:44;2.78;;;1.80;;
21089;SDS011;10703;51.020;6.128;2023-06-26T13:52:10;4.30;;;1.83;;
21089;SDS011;10703;51.020;6.128;2023-06-26T13:54:37;6.00;;;1.73;;
21089;SDS011;10703;51.020;6.128;2023-06-26T13:57:08;5.28;;;2.15;;
21089;SDS011;10703;51.020;6.128;2023-06-26T13:59:36;3.92;;;1.80;;
21089;SDS011;10703;51.020;6.128;2023-06-26T14:02:04;2.75;;;1.90;;
21089;SDS011;10703;51.020;6.128;2023-06-26T14:04:32;4.90;;;1.80;;
21089;SDS011;10703;51.020;6.128;2023-06-26T14:06:58;3.20;;;1.77;;
21089;SDS011;10703;51.020;6.128;2023-06-26T14:09:25;2.85;;;1.55;;
21089;SDS011;10703;51.020;6.128;2023-06-26T14:11:52;3.42;;;1.90;;
21089;SDS011;10703;51.020;6.128;2023-06-26T14:14:19;3.28;;;1.75;;
21089;SDS011;10703;51.020;6.128;2023-06-26T14:16:45;4.30;;;1.73;;
21089;SDS011;10703;51.020;6.128;2023-06-26T14:19:12;2.47;;;1.75;;
21089;SDS011;10703;51.020;6.128;2023-06-26T14:21:41;5.60;;;1.83;;
21089;SDS011;10703;51.020;6.128;2023-06-26T14:24:08;4.68;;;2.33;;
21089;SDS011;10703;51.020;6.128;2023-06-26T14:26:35;7.20;;;2.17;;
21089;SDS011;10703;51.020;6.128;2023-06-26T14:29:03;4.57;;;2.13;;
21089;SDS011;10703;51.020;6.128;2023-06-26T14:31:29;4.82;;;1.80;;
21089;SDS011;10703;51.020;6.128;2023-06-26T14:33:57;2.92;;;1.80;;
21089;SDS011;10703;51.020;6.128;2023-06-26T14:36:26;6.03;;;2.10;;
21089;SDS011;10703;51.020;6.128;2023-06-26T14:38:54;6.10;;;2.35;;
21089;SDS011;10703;51.020;6.128;2023-06-26T14:41:21;2.63;;;1.73;;
21089;SDS011;10703;51.020;6.128;2023-06-26T14:43:48;2.53;;;1.60;;
21089;SDS011;10703;51.020;6.128;2023-06-26T14:46:16;4.20;;;1.85;;
21089;SDS011;10703;51.020;6.128;2023-06-26T14:48:43;4.35;;;2.08;;
21089;SDS011;10703;51.020;6.128;2023-06-26T14:51:09;6.57;;;2.05;;
21089;SDS011;10703;51.020;6.128;2023-06-26T14:53:36;3.47;;;1.65;;
21089;SDS011;10703;51.020;6.128;2023-06-26T14:56:06;3.40;;;1.58;;
21089;SDS011;10703;51.020;6.128;2023-06-26T14:58:34;2.70;;;1.63;;